createdAt,value
2023-04-27T00:03:51.795Z,20.6
2023-04-27T00:09:46.078Z,20.6
2023-04-27T00:15:37.021Z,20.5
2023-04-27T00:21:28.415Z,20.4
2023-04-27T00:27:05.114Z,20.3
2023-04-27T00:32:56.333Z,20.2
2023-04-27T00:38:46.694Z,20.1
2023-04-27T00:44:39.783Z,20.1
2023-04-27T00:50:31.887Z,20
2023-04-27T00:56:22.340Z,19.9
2023-04-27T01:01:59.292Z,19.9
2023-04-27T01:07:52.998Z,19.8
2023-04-27T01:13:44.157Z,19.7
2023-04-27T01:19:36.585Z,19.7
2023-04-27T01:25:29.648Z,19.6
2023-04-27T01:31:21.042Z,19.5
2023-04-27T01:37:13.820Z,19.4
2023-04-27T01:43:05.500Z,19.4
2023-04-27T01:48:56.304Z,19.3
2023-04-27T01:54:48.822Z,19.3
2023-04-27T02:00:39.434Z,19.2
2023-04-27T02:06:16.641Z,19.1
2023-04-27T02:11:53.452Z,19.1
2023-04-27T02:17:45.531Z,18.9
2023-04-27T02:23:36.647Z,18.2
2023-04-27T02:29:32.697Z,17.8
2023-04-27T02:35:26.208Z,17.8
2023-04-27T02:41:16.845Z,17.9
2023-04-27T02:46:53.094Z,17.8
2023-04-27T02:52:45.277Z,17.9
2023-04-27T02:58:36.274Z,18
2023-04-27T03:04:30.542Z,18
2023-04-27T03:10:23.190Z,18
2023-04-27T03:16:16.036Z,18
2023-04-27T03:22:08.343Z,18.1
2023-04-27T03:27:44.284Z,18
2023-04-27T03:33:20.479Z,18
2023-04-27T03:38:56.598Z,18
2023-04-27T03:44:48.646Z,18
2023-04-27T03:50:39.413Z,18.1
2023-04-27T03:56:31.160Z,18.1
2023-04-27T04:02:22.777Z,18.1
2023-04-27T04:08:15.757Z,18
2023-04-27T04:14:07.450Z,18.1
2023-04-27T04:19:59.094Z,18
2023-04-27T04:25:50.429Z,18
2023-04-27T04:31:27.662Z,18
2023-04-27T04:37:03.827Z,18.1
2023-04-27T04:42:42.450Z,18.1
2023-04-27T04:48:35.080Z,18.1
2023-04-27T04:54:29.243Z,17.9
2023-04-27T05:00:22.196Z,17.9
2023-04-27T05:06:16.134Z,17.8
2023-04-27T05:12:10.910Z,17.6
2023-04-27T05:18:03.824Z,17.4
2023-04-27T05:23:41.702Z,17.3
2023-04-27T05:29:33.295Z,17.1
2023-04-27T05:35:24.747Z,16.9
2023-04-27T05:40:45.554Z,16.9
2023-04-27T05:46:22.040Z,16.8
2023-04-27T05:51:58.741Z,16.8
2023-04-27T05:57:35.208Z,16.8
2023-04-27T06:03:21.730Z,16.8
2023-04-27T06:09:00.069Z,16.9
2023-04-27T06:14:36.284Z,16.9
2023-04-27T06:20:13.553Z,16.9
2023-04-27T06:25:49.595Z,16.9
2023-04-27T06:31:41.449Z,16.8
2023-04-27T06:37:33.252Z,16.8
2023-04-27T06:43:25.694Z,16.8
2023-04-27T06:49:18.976Z,16.8
2023-04-27T06:55:10.521Z,16.8
2023-04-27T07:01:03.770Z,16.7
2023-04-27T07:06:57.070Z,16.6
2023-04-27T07:13:01.290Z,16.6
2023-04-27T07:18:52.260Z,16.6
2023-04-27T07:24:46.118Z,16.6
2023-04-27T07:30:50.208Z,16.5
2023-04-27T07:36:57.038Z,16.5
2023-04-27T07:42:49.904Z,16.5
2023-04-27T07:48:41.701Z,16.5
2023-04-27T07:54:33.378Z,16.5
2023-04-27T08:00:24.365Z,16.4
2023-04-27T08:06:38.029Z,16.4
2023-04-27T08:12:20.318Z,16.4
2023-04-27T08:17:57.429Z,16.4
2023-04-27T08:23:02.197Z,16.4
2023-04-27T08:28:06.733Z,16.4
2023-04-27T08:33:42.349Z,16.3
2023-04-27T08:38:47.565Z,16.3
2023-04-27T08:44:22.843Z,16.3
2023-04-27T08:49:54.749Z,16.3
2023-04-27T08:55:33.149Z,16.3
2023-04-27T09:01:25.420Z,16.2
2023-04-27T09:07:32.266Z,16.2
2023-04-27T09:13:23.322Z,16.2
2023-04-27T09:19:14.126Z,16.1
2023-04-27T09:24:19.971Z,16.1
2023-04-27T09:30:11.673Z,16.1
2023-04-27T09:36:03.413Z,16.1
2023-04-27T09:41:54.826Z,16.1
2023-04-27T09:47:48.681Z,16.1
2023-04-27T09:53:23.928Z,16.1
2023-04-27T09:59:15.538Z,16.1
2023-04-27T10:05:38.708Z,16.1
2023-04-27T10:11:29.320Z,16.1
2023-04-27T10:17:21.208Z,16.1
2023-04-27T10:23:15.363Z,16
2023-04-27T10:29:07.896Z,16
2023-04-27T10:34:59.792Z,16
2023-04-27T10:41:06.770Z,16
2023-04-27T10:46:57.671Z,16
2023-04-27T10:52:49.583Z,16
2023-04-27T10:58:29.947Z,16
2023-04-27T11:04:11.372Z,16
2023-04-27T11:10:05.019Z,16
2023-04-27T11:15:40.908Z,16
2023-04-27T11:21:31.838Z,16
2023-04-27T11:27:23.785Z,16
2023-04-27T11:33:16.114Z,16
2023-04-27T11:39:06.720Z,16
2023-04-27T11:44:29.956Z,16
2023-04-27T11:50:06.512Z,16
2023-04-27T11:55:29.648Z,16
2023-04-27T12:00:50.904Z,16
2023-04-27T12:06:47.860Z,16
2023-04-27T12:12:08.333Z,16
2023-04-27T12:17:30.204Z,16
2023-04-27T12:23:06.684Z,16
2023-04-27T12:29:00.436Z,16.1
2023-04-27T12:34:22.447Z,16.1
2023-04-27T12:40:14.551Z,16.1
2023-04-27T12:46:05.205Z,16.1
2023-04-27T12:52:25.876Z,16.1
2023-04-27T12:58:32.711Z,16.1
2023-04-27T13:04:27.011Z,16.1
2023-04-27T13:10:19.638Z,16.1
2023-04-27T13:16:12.208Z,16.1
2023-04-27T13:22:09.632Z,16.1
2023-04-27T13:28:02.398Z,16.2
2023-04-27T13:34:08.810Z,16.1
2023-04-27T13:39:59.844Z,16.1
2023-04-27T13:45:52.218Z,16.1
2023-04-27T13:51:28.935Z,16.2
2023-04-27T13:57:19.827Z,16.2
2023-04-27T14:03:12.632Z,16.2
2023-04-27T14:09:05.816Z,16.2
2023-04-27T14:15:14.633Z,16.2
2023-04-27T14:21:17.916Z,16.2
2023-04-27T14:27:09.624Z,16.2
2023-04-27T14:33:00.298Z,16.2
2023-04-27T14:38:52.778Z,16.2
2023-04-27T14:44:44.266Z,16.2
2023-04-27T14:51:01.224Z,16.2
2023-04-27T14:56:53.022Z,16.2
2023-04-27T15:02:45.233Z,16.8
2023-04-27T15:08:37.471Z,29.3
2023-04-27T15:14:29.919Z,34.1
2023-04-27T15:20:22.195Z,38.3
2023-04-27T15:26:14.096Z,39.8
2023-04-27T15:32:08.110Z,40.3
2023-04-27T15:37:59.931Z,38.5
2023-04-27T15:43:51.585Z,41.4
2023-04-27T15:49:29.379Z,41.9
2023-04-27T15:55:33.510Z,43.8
2023-04-27T16:01:27.796Z,43.9
2023-04-27T16:07:21.274Z,43.5
2023-04-27T16:13:16.274Z,41.9
2023-04-27T16:18:52.526Z,39.8
2023-04-27T16:24:44.304Z,42.8
2023-04-27T16:30:36.037Z,39.8
2023-04-27T16:36:27.306Z,43.4
2023-04-27T16:42:04.042Z,43.1
2023-04-27T16:47:56.723Z,44.8
2023-04-27T16:53:48.444Z,43.9
2023-04-27T16:59:24.805Z,41.3
2023-04-27T17:05:30.833Z,40.7
2023-04-27T17:11:23.420Z,39.7
2023-04-27T17:17:15.514Z,38.6
2023-04-27T17:23:10.697Z,39.7
2023-04-27T17:29:02.218Z,39.3
2023-04-27T17:34:59.265Z,37.6
2023-04-27T17:40:51.434Z,41.8
2023-04-27T17:46:42.331Z,46.6
2023-04-27T17:52:34.605Z,50.4
2023-04-27T18:03:49.398Z,53.1
2023-04-27T18:09:11.601Z,50.5
2023-04-27T18:14:49.958Z,47.7
2023-04-27T18:20:58.982Z,49.8
2023-04-27T18:26:51.173Z,45.9
2023-04-27T18:32:45.547Z,47.8
2023-04-27T18:38:37.212Z,48.3
2023-04-27T18:44:29.268Z,45.9
2023-04-27T18:50:06.662Z,49.6
2023-04-27T18:55:57.846Z,43.4
2023-04-27T19:01:50.769Z,41.1
2023-04-27T19:08:03.593Z,42.6
2023-04-27T19:13:59.936Z,42.1
2023-04-27T19:20:04.001Z,40.3
2023-04-27T19:26:06.135Z,37.4
2023-04-27T19:32:06.800Z,36.7
2023-04-27T19:38:03.282Z,34.8
2023-04-27T19:43:44.121Z,32.4
2023-04-27T19:49:37.242Z,30.7
2023-04-27T19:55:30.637Z,29.6
2023-04-27T20:01:23.612Z,28.8
2023-04-27T20:07:22.391Z,28.1
2023-04-27T20:13:31.056Z,27.6
2023-04-27T20:19:09.345Z,27.1
2023-04-27T20:24:49.826Z,26.8
2023-04-27T20:30:43.140Z,26.4
2023-04-27T20:36:49.607Z,26.2
2023-04-27T20:42:43.262Z,25.9
2023-04-27T20:48:04.548Z,25.7
2023-04-27T20:54:10.279Z,25.5
2023-04-27T21:00:02.331Z,25.2
2023-04-27T21:05:56.280Z,25.1
2023-04-27T21:11:50.852Z,24.9
2023-04-27T21:17:43.300Z,24.4
2023-04-27T21:23:51.945Z,23.8
2023-04-27T21:29:48.910Z,23.4
2023-04-27T21:35:43.932Z,23.1
2023-04-27T21:41:35.656Z,22.8
2023-04-27T21:47:27.624Z,22.7
2023-04-27T21:53:03.865Z,22.5
2023-04-27T21:58:59.446Z,22.3
2023-04-27T22:04:52.624Z,22.2
2023-04-27T22:10:15.555Z,22
2023-04-27T22:16:19.600Z,21.8
2023-04-27T22:22:11.792Z,21.6
2023-04-27T22:28:16.724Z,21.6
2023-04-27T22:34:08.758Z,21.4
2023-04-27T22:40:07.725Z,21.2
2023-04-27T22:45:58.171Z,21.1
2023-04-27T22:51:49.452Z,20.9
2023-04-27T22:57:40.545Z,20.8
2023-04-27T23:03:32.674Z,20.6
2023-04-27T23:09:24.910Z,20.4
2023-04-27T23:15:16.864Z,20.4
2023-04-27T23:21:14.509Z,20.3
2023-04-27T23:27:06.378Z,20.1
2023-04-27T23:32:58.435Z,20
2023-04-27T23:38:34.079Z,19.9
2023-04-27T23:44:09.779Z,19.8
2023-04-27T23:50:02.018Z,19.7
2023-04-27T23:55:37.731Z,19.6
